Airfield :
LOGIN :

Register | Disclaimer

   EN    FR    IT 

 










Legend :    VFR   Marginal VFR   IFR   Intensive IFR   Very Intensive IFR
Visi :
Ceiling :
>= 8 km
>= 3000ft
5 to 8 km
1000 to 3000 ft
1500m to 5 km
500 to 1000 ft
800 to 1500m
200 to 500 ft
< 800m
< 200 ft
Symbols :   Thunderstorms  Fog  Heavy snow  Heavy precipitations  Wind > 20 kt
SIGMETs :     Misc.  Thunderstorms  Icing  Turbulence  Mountain Waves  Volcanic Ashes







- Airport Elevation : 18 ft
- IATA code : AJA
- Download approach charts


LFKJ - Ajaccio

CURRENT METAR :
  • 220030Z AUTO 36004KT 320V050 9999 -RA SCT031 BKN043 BKN052 17/14 Q1020 TEMPO 4000 SHRA BR BKN010 SCT015TCU

EXPIRED METARs :
  • 220000Z AUTO VRB02KT 9999 FEW045/// BKN094/// ///TCU 16/14 Q1019 TEMPO 4000 SHRA BR BKN010 SCT015TCU
  • 212330Z AUTO 07004KT 9999 BKN038 BKN046 BKN052 17/14 Q1020 TEMPO 4000 SHRA BR BKN010 SCT015TCU
  • 212300Z AUTO VRB03KT 9999 SCT042 17/14 Q1020 TEMPO 4000 SHRA BR BKN010 SCT015TCU
  • 212230Z AUTO 03004KT 350V050 CAVOK 17/14 Q1020 TEMPO 4000 SHRA BR BKN010 SCT015TCU
  • 212200Z AUTO 03005KT 9999 FEW048 16/14 Q1020 TEMPO 4000 SHRA BR BKN010 SCT015TCU

TAF TAF LFKJ
Valid from the 21 at 21:00 until the 22 at 21:00 UTC


212000Z 2121/2221 05006KT 9999 BKN015
TEMPO 2121/2205 4000 SHRA BR BKN010 SCT015TCU
BECMG 2210/2212 30010G20KT
TEMPO 2215/2221 30015G25KT
ATIS : +33 4 95 23 59 85
No reported NOTAMs for that airfield.



MET'MAP, your aeronautical weather chart ! - Copyright ORBIFLY December 2007 - Disclaimer

ORBIFLY MET'MAP TEAM :

Programming & Development : Alexandra Zaïnal
Concept & Development : Baudouin d'Aumeries
Co-Development & Prog : Marc-Olivier Méhu
Technical & hardware support : Manuel Goepfert

Contact : metmap@orbifly.com




SOURCES & CREDITS :

   NOAA